createdAt,value
2022-08-07T00:02:36.831Z,67.03
2022-08-07T00:05:05.798Z,68.90
2022-08-07T00:07:40.153Z,65.24
2022-08-07T00:10:27.310Z,58.91
2022-08-07T00:13:02.476Z,55.56
2022-08-07T00:15:37.725Z,55.39
2022-08-07T00:18:19.715Z,55.91
2022-08-07T00:21:01.667Z,57.25
2022-08-07T00:23:33.053Z,58.12
2022-08-07T00:26:13.251Z,58.61
2022-08-07T00:28:55.657Z,59.09
2022-08-07T00:31:37.954Z,60.35
2022-08-07T00:34:09.737Z,63.67
2022-08-07T00:36:43.251Z,66.38
2022-08-07T00:39:16.957Z,64.02
2022-08-07T00:42:01.727Z,59.53
2022-08-07T00:44:35.480Z,57.07
2022-08-07T00:48:05.315Z,57.12
2022-08-07T00:50:20.158Z,57.51
2022-08-07T00:52:47.535Z,58.23
2022-08-07T00:55:17.503Z,59.01
2022-08-07T00:58:06.520Z,59.09
2022-08-07T01:00:36.670Z,59.67
2022-08-07T01:03:06.696Z,59.93
2022-08-07T01:05:42.870Z,60.13
2022-08-07T01:08:22.454Z,60.65
2022-08-07T01:10:57.081Z,64.92
2022-08-07T01:13:29.358Z,67.41
2022-08-07T01:16:06.101Z,64.73
2022-08-07T01:18:35.980Z,62.51
2022-08-07T01:21:22.655Z,58.83
2022-08-07T01:23:57.895Z,56.33
2022-08-07T01:26:27.492Z,56.70
2022-08-07T01:28:55.976Z,57.05
2022-08-07T01:31:41.720Z,57.82
2022-08-07T01:34:14.343Z,58.50
2022-08-07T01:36:44.877Z,59.04
2022-08-07T01:39:41.060Z,59.39
2022-08-07T01:42:39.236Z,59.89
2022-08-07T01:45:36.176Z,66.99
2022-08-07T01:48:19.897Z,65.91
2022-08-07T01:52:00.964Z,63.51
2022-08-07T01:54:09.260Z,58.41
2022-08-07T01:56:56.598Z,56.73
2022-08-07T01:59:35.922Z,57.58
2022-08-07T02:03:11.390Z,57.81
2022-08-07T02:05:43.006Z,58.71
2022-08-07T02:08:23.812Z,59.57
2022-08-07T02:10:58.156Z,59.90
2022-08-07T02:13:57.551Z,62.75
2022-08-07T02:16:29.950Z,67.54
2022-08-07T02:19:05.680Z,63.42
2022-08-07T02:21:58.792Z,58.00
2022-08-07T02:24:30.220Z,56.86
2022-08-07T02:27:03.062Z,57.35
2022-08-07T02:29:36.739Z,57.74
2022-08-07T02:32:15.171Z,58.33
2022-08-07T02:34:48.940Z,59.42
2022-08-07T02:37:22.903Z,60.09
2022-08-07T02:40:11.454Z,65.28
2022-08-07T02:42:45.212Z,68.68
2022-08-07T02:46:00.630Z,63.67
2022-08-07T02:48:10.257Z,61.38
2022-08-07T02:50:50.949Z,58.02
2022-08-07T02:53:27.291Z,55.67
2022-08-07T02:56:03.587Z,56.02
2022-08-07T02:58:37.122Z,57.60
2022-08-07T03:01:18.879Z,58.96
2022-08-07T03:03:50.853Z,59.64
2022-08-07T03:06:33.095Z,64.79
2022-08-07T03:09:06.054Z,65.63
2022-08-07T03:11:38.928Z,62.58
2022-08-07T03:14:22.488Z,58.27
2022-08-07T03:16:52.464Z,56.95
2022-08-07T03:19:22.022Z,57.54
2022-08-07T03:21:51.290Z,57.90
2022-08-07T03:24:27.353Z,59.20
2022-08-07T03:27:02.306Z,59.44
2022-08-07T03:29:46.236Z,64.15
2022-08-07T03:32:24.836Z,67.30
2022-08-07T03:35:16.865Z,63.11
2022-08-07T03:37:54.043Z,58.42
2022-08-07T03:40:30.832Z,56.84
2022-08-07T03:43:01.435Z,57.09
2022-08-07T03:45:32.993Z,58.39
2022-08-07T03:48:11.462Z,59.29
2022-08-07T03:50:43.133Z,60.34
2022-08-07T03:53:20.618Z,65.39
2022-08-07T03:56:13.660Z,66.58
2022-08-07T03:59:09.518Z,63.07
2022-08-07T04:01:33.130Z,60.29
2022-08-07T04:04:05.601Z,57.72
2022-08-07T04:06:38.706Z,57.12
2022-08-07T04:09:16.297Z,57.98
2022-08-07T04:12:25.455Z,58.77
2022-08-07T04:14:43.746Z,59.22
2022-08-07T04:17:21.545Z,64.80
2022-08-07T04:20:10.360Z,67.20
2022-08-07T04:22:41.088Z,62.49
2022-08-07T04:25:24.624Z,58.80
2022-08-07T04:27:59.214Z,56.12
2022-08-07T04:30:35.943Z,57.23
2022-08-07T04:33:20.580Z,58.48
2022-08-07T04:35:53.948Z,61.26
2022-08-07T04:38:26.987Z,63.37
2022-08-07T04:40:56.741Z,64.41
2022-08-07T04:44:12.515Z,65.97
2022-08-07T04:46:59.659Z,62.74
2022-08-07T04:50:04.827Z,62.40
2022-08-07T04:52:51.062Z,57.37
2022-08-07T04:58:16.264Z,56.29
2022-08-07T04:59:18.460Z,56.93
2022-08-07T05:01:54.077Z,59.50
2022-08-07T05:04:47.070Z,61.33
2022-08-07T05:07:48.352Z,64.13
2022-08-07T05:10:29.263Z,66.15
2022-08-07T05:14:44.321Z,65.18
2022-08-07T05:16:00.037Z,61.62
2022-08-07T05:18:36.903Z,56.16
2022-08-07T05:21:12.552Z,55.05
2022-08-07T05:23:53.593Z,56.33
2022-08-07T05:26:24.968Z,58.75
2022-08-07T05:29:04.375Z,61.08
2022-08-07T05:31:38.569Z,63.40
2022-08-07T05:34:13.761Z,59.97
2022-08-07T05:36:48.975Z,57.82
2022-08-07T05:40:17.085Z,57.36
2022-08-07T05:42:33.329Z,59.34
2022-08-07T05:45:14.193Z,61.70
2022-08-07T05:48:01.489Z,63.42
2022-08-07T05:50:39.479Z,62.47
2022-08-07T05:54:08.709Z,61.43
2022-08-07T05:56:06.740Z,55.69
2022-08-07T05:58:41.967Z,54.53
2022-08-07T06:01:24.462Z,56.21
2022-08-07T06:03:58.854Z,58.10
2022-08-07T06:06:35.639Z,59.55
2022-08-07T06:09:06.421Z,59.88
2022-08-07T06:11:39.522Z,60.22
2022-08-07T06:14:12.752Z,60.74
2022-08-07T06:16:55.922Z,61.10
2022-08-07T06:19:58.230Z,61.56
2022-08-07T06:22:27.138Z,61.64
2022-08-07T06:25:10.689Z,61.78
2022-08-07T06:28:00.679Z,61.57
2022-08-07T06:30:35.990Z,61.21
2022-08-07T06:33:15.965Z,60.69
2022-08-07T06:36:06.586Z,60.82
2022-08-07T06:38:36.727Z,60.98
2022-08-07T06:41:12.914Z,60.87
2022-08-07T06:43:46.128Z,60.68
2022-08-07T06:46:20.534Z,60.32
2022-08-07T06:49:05.623Z,60.12
2022-08-07T06:51:49.447Z,59.73
2022-08-07T06:55:34.503Z,59.57
2022-08-07T06:57:13.808Z,59.39
2022-08-07T07:00:11.708Z,58.99
2022-08-07T07:02:54.050Z,58.64
2022-08-07T07:06:03.163Z,58.22
2022-08-07T07:08:18.656Z,57.90
2022-08-07T07:10:56.835Z,57.97
2022-08-07T07:13:57.949Z,57.56
2022-08-07T07:16:45.023Z,56.79
2022-08-07T07:19:56.578Z,56.24
2022-08-07T07:22:35.783Z,55.54
2022-08-07T07:26:31.358Z,55.32
2022-08-07T07:28:29.519Z,55.00
2022-08-07T07:31:04.227Z,54.28
2022-08-07T07:33:35.589Z,53.89
2022-08-07T07:36:13.448Z,53.35
2022-08-07T07:38:47.752Z,53.49
2022-08-07T07:41:22.118Z,53.02
2022-08-07T07:44:17.596Z,52.46
2022-08-07T07:47:02.194Z,52.04
2022-08-07T07:50:32.478Z,51.87
2022-08-07T07:52:37.671Z,51.69
2022-08-07T07:55:11.739Z,51.61
2022-08-07T07:57:53.803Z,51.39
2022-08-07T08:00:29.971Z,51.20
2022-08-07T08:03:16.707Z,50.77
2022-08-07T08:05:59.236Z,50.43
2022-08-07T08:08:36.886Z,50.39
2022-08-07T08:11:16.423Z,49.64
2022-08-07T08:13:54.570Z,48.92
2022-08-07T08:16:39.254Z,48.78
2022-08-07T08:20:15.720Z,48.37
2022-08-07T08:22:23.439Z,47.81
2022-08-07T08:25:27.064Z,46.16
2022-08-07T08:28:23.727Z,44.63
2022-08-07T08:31:14.655Z,45.10
2022-08-07T08:33:49.750Z,45.04
2022-08-07T08:36:30.199Z,44.06
2022-08-07T08:39:02.634Z,43.34
2022-08-07T08:41:57.158Z,43.15
2022-08-07T08:44:44.386Z,43.65
2022-08-07T08:47:52.026Z,43.24
2022-08-07T08:50:34.797Z,43.93
2022-08-07T08:53:23.064Z,43.40
2022-08-07T08:56:05.467Z,42.89
2022-08-07T08:58:54.500Z,41.95
2022-08-07T09:01:39.878Z,42.05
2022-08-07T09:04:37.033Z,42.65
2022-08-07T09:07:45.902Z,42.34
2022-08-07T09:10:29.704Z,42.07
2022-08-07T09:13:14.839Z,41.94
2022-08-07T09:16:22.377Z,41.03
2022-08-07T09:18:58.857Z,40.90
2022-08-07T09:22:10.177Z,40.21
2022-08-07T09:25:07.096Z,38.94
2022-08-07T09:28:00.459Z,39.00
2022-08-07T09:30:49.690Z,38.56
2022-08-07T09:33:57.724Z,37.87
2022-08-07T09:36:36.976Z,37.17
2022-08-07T09:39:52.943Z,36.65
2022-08-07T09:42:23.115Z,37.21
2022-08-07T09:47:42.417Z,37.26
2022-08-07T09:48:07.541Z,37.52
2022-08-07T09:50:56.810Z,37.87
2022-08-07T09:53:40.854Z,38.18
2022-08-07T09:56:37.462Z,37.70
2022-08-07T09:59:44.557Z,37.38
2022-08-07T10:02:39.967Z,36.20
2022-08-07T10:06:00.052Z,36.29
2022-08-07T10:08:44.139Z,35.89
2022-08-07T10:12:01.205Z,35.67
2022-08-07T10:14:54.356Z,36.13
2022-08-07T10:18:01.193Z,35.39
2022-08-07T10:20:50.480Z,35.12
2022-08-07T10:24:05.955Z,35.11
2022-08-07T10:27:23.003Z,35.25
2022-08-07T10:30:13.336Z,35.07
2022-08-07T10:33:00.220Z,34.58
2022-08-07T10:35:55.184Z,33.32
2022-08-07T10:38:58.494Z,34.13
2022-08-07T10:41:51.365Z,34.63
2022-08-07T10:44:46.296Z,34.40
2022-08-07T10:47:53.807Z,34.07
2022-08-07T10:50:34.461Z,33.92
2022-08-07T10:53:41.692Z,33.71
2022-08-07T10:56:33.287Z,33.80
2022-08-07T10:59:45.359Z,33.85
2022-08-07T11:02:33.330Z,33.99
2022-08-07T11:05:10.628Z,34.43
2022-08-07T11:07:59.453Z,35.12
2022-08-07T11:11:01.878Z,35.03
2022-08-07T11:14:46.452Z,35.08
2022-08-07T11:17:08.985Z,35.28
2022-08-07T11:20:00.188Z,35.62
2022-08-07T11:23:13.269Z,36.18
2022-08-07T11:26:32.060Z,35.17
2022-08-07T11:29:12.933Z,34.66
2022-08-07T11:32:25.923Z,34.11
2022-08-07T11:35:03.353Z,34.00
2022-08-07T11:38:12.863Z,34.09
2022-08-07T11:41:22.080Z,33.99
2022-08-07T11:44:11.931Z,33.54
2022-08-07T11:47:14.240Z,33.55
2022-08-07T11:50:30.411Z,33.82
2022-08-07T11:53:21.730Z,33.67
2022-08-07T11:56:38.477Z,33.40
2022-08-07T12:00:07.807Z,34.20
2022-08-07T12:02:32.098Z,34.72
2022-08-07T12:05:47.448Z,34.40
2022-08-07T12:08:25.703Z,34.40
2022-08-07T12:11:20.702Z,33.80
2022-08-07T12:14:02.899Z,33.80
2022-08-07T12:16:38.821Z,33.98
2022-08-07T12:19:23.578Z,34.15
2022-08-07T12:22:38.654Z,33.76
2022-08-07T12:26:21.614Z,33.87
2022-08-07T12:28:31.724Z,33.86
2022-08-07T12:31:11.896Z,33.60
2022-08-07T12:34:00.830Z,34.24
2022-08-07T12:36:33.914Z,34.51
2022-08-07T12:39:41.138Z,34.21
2022-08-07T12:41:55.179Z,33.39
2022-08-07T12:44:26.148Z,33.78
2022-08-07T12:47:30.610Z,34.53
2022-08-07T12:50:38.588Z,35.02
2022-08-07T12:53:17.487Z,35.06
2022-08-07T12:56:02.354Z,34.40
2022-08-07T12:58:39.926Z,34.08
2022-08-07T13:01:40.721Z,33.43
2022-08-07T13:04:38.013Z,33.67
2022-08-07T13:08:18.741Z,33.89
2022-08-07T13:11:23.316Z,33.90
2022-08-07T13:14:59.905Z,34.14
2022-08-07T13:18:00.292Z,33.89
2022-08-07T13:20:34.883Z,33.76
2022-08-07T13:24:01.981Z,33.81
2022-08-07T13:26:57.930Z,33.52
2022-08-07T13:30:04.492Z,33.45
2022-08-07T13:32:49.586Z,33.79
2022-08-07T13:35:59.924Z,34.02
2022-08-07T13:38:50.773Z,33.82
2022-08-07T13:41:47.540Z,34.02
2022-08-07T13:44:26.042Z,34.04
2022-08-07T13:47:00.237Z,34.21
2022-08-07T13:50:35.586Z,33.86
2022-08-07T13:52:41.141Z,33.54
2022-08-07T13:55:26.544Z,33.97
2022-08-07T13:58:31.705Z,33.73
2022-08-07T14:01:13.908Z,33.31
2022-08-07T14:04:05.117Z,33.36
2022-08-07T14:06:39.751Z,33.67
2022-08-07T14:10:01.912Z,33.80
2022-08-07T14:12:49.402Z,34.21
2022-08-07T14:15:36.067Z,34.40
2022-08-07T14:18:29.290Z,34.21
2022-08-07T14:22:02.122Z,34.03
2022-08-07T14:24:42.658Z,33.80
2022-08-07T14:28:10.737Z,33.79
2022-08-07T14:30:52.206Z,33.53
2022-08-07T14:33:45.329Z,33.54
2022-08-07T14:36:20.188Z,33.47
2022-08-07T14:38:58.413Z,33.14
2022-08-07T14:42:22.111Z,33.05
2022-08-07T14:44:30.895Z,33.76
2022-08-07T14:47:14.240Z,33.93
2022-08-07T14:49:58.142Z,34.20
2022-08-07T14:52:36.073Z,34.16
2022-08-07T14:55:07.905Z,33.70
2022-08-07T14:57:58.286Z,33.19
2022-08-07T15:00:35.790Z,33.46
2022-08-07T15:03:17.482Z,33.70
2022-08-07T15:05:55.181Z,33.63
2022-08-07T15:08:52.998Z,33.83
2022-08-07T15:11:53.999Z,33.74
2022-08-07T15:14:30.629Z,33.60
2022-08-07T15:17:14.458Z,33.75
2022-08-07T15:22:54.108Z,33.80
2022-08-07T15:25:36.457Z,33.34
2022-08-07T15:28:34.842Z,33.46
2022-08-07T15:34:15.095Z,33.40
2022-08-07T15:37:08.363Z,33.31
2022-08-07T15:39:57.799Z,33.38
2022-08-07T15:42:45.017Z,33.35
2022-08-07T15:45:58.194Z,33.18
2022-08-07T15:48:33.614Z,33.07
2022-08-07T15:51:11.800Z,33.02
2022-08-07T15:53:53.639Z,32.97
2022-08-07T15:56:41.801Z,32.92
2022-08-07T15:59:20.354Z,33.03
2022-08-07T16:02:15.348Z,33.51
2022-08-07T16:04:46.736Z,33.38
2022-08-07T16:08:31.519Z,33.38
2022-08-07T16:10:17.572Z,33.28
2022-08-07T16:13:17.367Z,33.48
2022-08-07T16:16:47.540Z,33.65
2022-08-07T16:19:42.230Z,33.62
2022-08-07T16:22:55.548Z,33.68
2022-08-07T16:25:54.860Z,33.64
2022-08-07T16:30:06.569Z,33.51
2022-08-07T16:31:51.783Z,33.68
2022-08-07T16:34:48.241Z,33.88
2022-08-07T16:38:06.207Z,33.84
2022-08-07T16:40:56.943Z,34.08
2022-08-07T16:44:02.601Z,34.02
2022-08-07T16:47:22.909Z,34.15
2022-08-07T16:50:39.114Z,34.42
2022-08-07T16:54:03.164Z,34.60
2022-08-07T16:56:53.619Z,34.64
2022-08-07T16:59:46.114Z,34.58
2022-08-07T17:02:53.372Z,34.60
2022-08-07T17:06:26.714Z,34.82
2022-08-07T17:08:18.274Z,35.06
2022-08-07T17:10:57.970Z,35.07
2022-08-07T17:14:18.502Z,35.09
2022-08-07T17:16:56.103Z,35.13
2022-08-07T17:20:02.286Z,35.52
2022-08-07T17:23:12.864Z,35.77
2022-08-07T17:26:22.816Z,35.82
2022-08-07T17:30:14.764Z,35.79
2022-08-07T17:32:53.553Z,36.16
2022-08-07T17:35:54.625Z,36.41
2022-08-07T17:38:44.464Z,36.73
2022-08-07T17:42:03.934Z,37.08
2022-08-07T17:44:33.678Z,37.16
2022-08-07T17:47:43.057Z,37.46
2022-08-07T17:50:30.234Z,37.62
2022-08-07T17:54:01.359Z,38.03
2022-08-07T17:56:29.172Z,38.50
2022-08-07T17:59:02.155Z,39.12
2022-08-07T18:01:46.039Z,39.22
2022-08-07T18:04:34.537Z,38.97
2022-08-07T18:07:23.819Z,38.59
2022-08-07T18:10:10.307Z,38.37
2022-08-07T18:13:03.518Z,38.20
2022-08-07T18:16:13.243Z,37.97
2022-08-07T18:21:03.288Z,37.96
2022-08-07T18:22:00.619Z,38.08
2022-08-07T18:24:41.513Z,38.14
2022-08-07T18:27:21.806Z,38.41
2022-08-07T18:30:05.336Z,38.90
2022-08-07T18:33:10.917Z,39.35
2022-08-07T18:36:05.966Z,40.03
2022-08-07T18:40:06.755Z,40.74
2022-08-07T18:42:13.107Z,41.51
2022-08-07T18:45:43.995Z,42.30
2022-08-07T18:50:05.244Z,42.30
2022-08-07T18:52:34.998Z,42.82
2022-08-07T18:54:49.773Z,43.27
2022-08-07T18:57:59.609Z,43.70
2022-08-07T19:02:31.821Z,44.17
2022-08-07T19:04:32.101Z,44.47
2022-08-07T19:07:34.607Z,45.00
2022-08-07T19:10:18.461Z,45.52
2022-08-07T19:13:21.497Z,46.08
2022-08-07T19:16:43.110Z,46.39
2022-08-07T19:19:13.207Z,46.69
2022-08-07T19:22:04.866Z,47.03
2022-08-07T19:24:49.940Z,47.26
2022-08-07T19:28:57.463Z,47.81
2022-08-07T19:31:04.784Z,47.90
2022-08-07T19:33:13.266Z,48.26
2022-08-07T19:35:53.843Z,48.55
2022-08-07T19:38:28.007Z,48.81
2022-08-07T19:41:00.849Z,49.12
2022-08-07T19:43:48.638Z,49.43
2022-08-07T19:46:30.794Z,49.15
2022-08-07T19:49:09.990Z,49.71
2022-08-07T19:51:51.755Z,49.81
2022-08-07T19:54:34.445Z,50.01
2022-08-07T19:58:00.788Z,50.21
2022-08-07T20:00:28.337Z,50.36
2022-08-07T20:03:35.209Z,50.51
2022-08-07T20:06:04.680Z,50.66
2022-08-07T20:08:39.897Z,51.02
2022-08-07T20:12:01.403Z,51.12
2022-08-07T20:14:31.764Z,51.25
2022-08-07T20:17:07.020Z,51.34
2022-08-07T20:19:58.563Z,51.57
2022-08-07T20:22:34.217Z,51.51
2022-08-07T20:25:19.763Z,51.84
2022-08-07T20:27:58.595Z,51.89
2022-08-07T20:30:42.085Z,52.01
2022-08-07T20:33:36.573Z,52.26
2022-08-07T20:36:12.064Z,52.30
2022-08-07T20:39:00.760Z,52.59
2022-08-07T20:41:40.792Z,52.63
2022-08-07T20:44:13.070Z,52.78
2022-08-07T20:46:47.196Z,52.80
2022-08-07T20:49:58.517Z,52.69
2022-08-07T20:52:50.698Z,52.79
2022-08-07T20:55:17.268Z,52.97
2022-08-07T20:58:03.567Z,53.29
2022-08-07T21:00:44.573Z,53.25
2022-08-07T21:03:25.619Z,53.38
2022-08-07T21:06:12.316Z,53.52
2022-08-07T21:09:13.641Z,53.60
2022-08-07T21:11:50.890Z,53.83
2022-08-07T21:14:32.316Z,54.05
2022-08-07T21:18:05.902Z,54.18
2022-08-07T21:20:04.786Z,54.37
2022-08-07T21:22:55.437Z,54.39
2022-08-07T21:25:42.465Z,54.68
2022-08-07T21:28:18.912Z,54.70
2022-08-07T21:31:31.387Z,54.83
2022-08-07T21:34:48.698Z,54.81
2022-08-07T21:37:58.808Z,54.88
2022-08-07T21:40:40.370Z,54.95
2022-08-07T21:43:47.174Z,55.39
2022-08-07T21:46:31.343Z,55.47
2022-08-07T21:49:14.879Z,55.83
2022-08-07T21:52:09.117Z,55.93
2022-08-07T21:54:52.787Z,55.95
2022-08-07T21:57:44.895Z,56.06
2022-08-07T22:00:25.877Z,55.92
2022-08-07T22:03:30.833Z,56.45
2022-08-07T22:06:30.162Z,56.37
2022-08-07T22:09:08.464Z,56.35
2022-08-07T22:12:05.006Z,56.57
2022-08-07T22:16:42.751Z,56.73
2022-08-07T22:18:11.791Z,56.74
2022-08-07T22:21:01.554Z,57.25
2022-08-07T22:23:44.846Z,57.47
2022-08-07T22:26:19.146Z,57.62
2022-08-07T22:28:56.634Z,57.73
2022-08-07T22:32:05.342Z,57.65
2022-08-07T22:34:40.707Z,57.60
2022-08-07T22:37:23.883Z,58.03
2022-08-07T22:40:05.096Z,58.46
2022-08-07T22:42:37.172Z,58.63
2022-08-07T22:45:10.900Z,58.72
2022-08-07T22:48:56.171Z,58.89
2022-08-07T22:51:10.139Z,58.89
2022-08-07T22:54:22.284Z,59.35
2022-08-07T22:57:34.507Z,59.09
2022-08-07T23:00:21.574Z,59.39
2022-08-07T23:03:15.739Z,59.78
2022-08-07T23:06:08.275Z,59.92
2022-08-07T23:08:45.829Z,60.06
2022-08-07T23:11:35.026Z,60.14
2022-08-07T23:14:25.602Z,60.20
2022-08-07T23:17:03.958Z,60.87
2022-08-07T23:20:21.715Z,60.94
2022-08-07T23:24:05.680Z,60.77
2022-08-07T23:27:34.036Z,69.44
2022-08-07T23:30:37.607Z,68.83
2022-08-07T23:34:22.553Z,62.19
2022-08-07T23:36:29.845Z,56.71
2022-08-07T23:39:21.946Z,55.92
2022-08-07T23:42:04.196Z,56.23
2022-08-07T23:45:15.036Z,56.94
2022-08-07T23:48:09.916Z,56.62
2022-08-07T23:53:01.973Z,57.74
2022-08-07T23:54:43.948Z,58.50
2022-08-07T23:57:28.121Z,59.09
